sensor_id;sensor_type;location;lat;lon;timestamp;P1;durP1;ratioP1;P2;durP2;ratioP2
57441;SDS011;43284;47.042;15.498;2022-09-09T00:02:04;3.08;;;0.90;;
57441;SDS011;43284;47.042;15.498;2022-09-09T00:04:45;5.40;;;0.90;;
57441;SDS011;43284;47.042;15.498;2022-09-09T00:07:50;5.97;;;2.00;;
57441;SDS011;43284;47.042;15.498;2022-09-09T00:21:43;15.40;;;1.10;;
57441;SDS011;43284;47.042;15.498;2022-09-09T00:30:24;4.40;;;1.23;;
57441;SDS011;43284;47.042;15.498;2022-09-09T00:33:08;5.63;;;1.90;;
57441;SDS011;43284;47.042;15.498;2022-09-09T00:35:42;7.85;;;1.70;;
57441;SDS011;43284;47.042;15.498;2022-09-09T00:38:25;3.65;;;1.25;;
57441;SDS011;43284;47.042;15.498;2022-09-09T00:43:46;2.42;;;1.10;;
57441;SDS011;43284;47.042;15.498;2022-09-09T00:46:56;1.35;;;0.90;;
57441;SDS011;43284;47.042;15.498;2022-09-09T00:52:34;6.13;;;1.15;;
57441;SDS011;43284;47.042;15.498;2022-09-09T00:55:20;6.95;;;1.10;;
57441;SDS011;43284;47.042;15.498;2022-09-09T00:58:07;7.13;;;0.93;;
57441;SDS011;43284;47.042;15.498;2022-09-09T01:00:36;7.15;;;1.23;;
57441;SDS011;43284;47.042;15.498;2022-09-09T01:03:21;4.70;;;1.08;;
57441;SDS011;43284;47.042;15.498;2022-09-09T01:14:40;4.20;;;1.00;;
57441;SDS011;43284;47.042;15.498;2022-09-09T01:17:17;8.52;;;2.55;;
57441;SDS011;43284;47.042;15.498;2022-09-09T01:20:30;0.82;;;0.82;;
57441;SDS011;43284;47.042;15.498;2022-09-09T01:23:13;1.00;;;0.80;;
57441;SDS011;43284;47.042;15.498;2022-09-09T01:28:40;3.13;;;1.08;;
57441;SDS011;43284;47.042;15.498;2022-09-09T01:31:12;6.72;;;0.80;;
57441;SDS011;43284;47.042;15.498;2022-09-09T01:33:48;3.20;;;0.98;;
57441;SDS011;43284;47.042;15.498;2022-09-09T01:39:06;5.50;;;0.90;;
57441;SDS011;43284;47.042;15.498;2022-09-09T01:41:33;3.05;;;1.38;;
57441;SDS011;43284;47.042;15.498;2022-09-09T01:44:01;2.88;;;0.90;;
57441;SDS011;43284;47.042;15.498;2022-09-09T01:46:29;1.00;;;0.70;;
57441;SDS011;43284;47.042;15.498;2022-09-09T01:48:57;5.10;;;1.40;;
57441;SDS011;43284;47.042;15.498;2022-09-09T01:51:26;9.73;;;0.98;;
57441;SDS011;43284;47.042;15.498;2022-09-09T01:53:54;3.17;;;1.00;;
57441;SDS011;43284;47.042;15.498;2022-09-09T02:04:14;4.55;;;0.77;;
57441;SDS011;43284;47.042;15.498;2022-09-09T02:07:05;2.55;;;1.10;;
57441;SDS011;43284;47.042;15.498;2022-09-09T02:09:46;6.72;;;0.98;;
57441;SDS011;43284;47.042;15.498;2022-09-09T02:12:23;4.03;;;0.90;;
57441;SDS011;43284;47.042;15.498;2022-09-09T02:15:02;2.17;;;0.80;;
57441;SDS011;43284;47.042;15.498;2022-09-09T02:17:35;4.38;;;0.98;;
57441;SDS011;43284;47.042;15.498;2022-09-09T02:20:09;3.20;;;0.97;;
57441;SDS011;43284;47.042;15.498;2022-09-09T02:22:39;2.75;;;1.00;;
57441;SDS011;43284;47.042;15.498;2022-09-09T02:25:12;1.85;;;0.85;;
57441;SDS011;43284;47.042;15.498;2022-09-09T02:27:44;7.07;;;1.08;;
57441;SDS011;43284;47.042;15.498;2022-09-09T02:30:14;5.03;;;1.20;;
57441;SDS011;43284;47.042;15.498;2022-09-09T02:32:42;3.22;;;1.30;;
57441;SDS011;43284;47.042;15.498;2022-09-09T02:35:14;1.48;;;0.93;;
57441;SDS011;43284;47.042;15.498;2022-09-09T02:37:46;5.53;;;1.42;;
57441;SDS011;43284;47.042;15.498;2022-09-09T02:40:15;4.63;;;1.20;;
57441;SDS011;43284;47.042;15.498;2022-09-09T02:42:44;1.23;;;0.77;;
57441;SDS011;43284;47.042;15.498;2022-09-09T02:45:14;2.65;;;1.23;;
57441;SDS011;43284;47.042;15.498;2022-09-09T02:47:53;2.00;;;0.80;;
57441;SDS011;43284;47.042;15.498;2022-09-09T02:50:42;2.03;;;0.88;;
57441;SDS011;43284;47.042;15.498;2022-09-09T02:53:43;3.92;;;1.10;;
57441;SDS011;43284;47.042;15.498;2022-09-09T02:56:27;5.95;;;1.08;;
57441;SDS011;43284;47.042;15.498;2022-09-09T02:59:04;2.85;;;0.90;;
57441;SDS011;43284;47.042;15.498;2022-09-09T03:01:32;5.35;;;1.58;;
57441;SDS011;43284;47.042;15.498;2022-09-09T03:04:02;6.50;;;1.20;;
57441;SDS011;43284;47.042;15.498;2022-09-09T03:06:31;4.03;;;1.40;;
57441;SDS011;43284;47.042;15.498;2022-09-09T03:08:58;3.88;;;1.35;;
57441;SDS011;43284;47.042;15.498;2022-09-09T03:11:27;1.67;;;0.90;;
57441;SDS011;43284;47.042;15.498;2022-09-09T03:13:55;3.88;;;1.00;;
57441;SDS011;43284;47.042;15.498;2022-09-09T03:16:22;3.15;;;0.98;;
57441;SDS011;43284;47.042;15.498;2022-09-09T03:18:50;1.73;;;0.77;;
57441;SDS011;43284;47.042;15.498;2022-09-09T03:21:18;2.85;;;0.98;;
57441;SDS011;43284;47.042;15.498;2022-09-09T03:23:46;1.85;;;0.98;;
57441;SDS011;43284;47.042;15.498;2022-09-09T03:26:14;1.65;;;0.90;;
57441;SDS011;43284;47.042;15.498;2022-09-09T03:28:41;8.23;;;1.67;;
57441;SDS011;43284;47.042;15.498;2022-09-09T03:31:11;3.60;;;1.30;;
57441;SDS011;43284;47.042;15.498;2022-09-09T03:33:39;5.90;;;0.90;;
57441;SDS011;43284;47.042;15.498;2022-09-09T03:36:13;9.73;;;1.58;;
57441;SDS011;43284;47.042;15.498;2022-09-09T03:38:41;4.95;;;1.45;;
57441;SDS011;43284;47.042;15.498;2022-09-09T03:41:09;3.55;;;1.15;;
57441;SDS011;43284;47.042;15.498;2022-09-09T03:43:37;3.63;;;0.98;;
57441;SDS011;43284;47.042;15.498;2022-09-09T03:46:05;4.28;;;1.00;;
57441;SDS011;43284;47.042;15.498;2022-09-09T03:48:33;3.33;;;1.20;;
57441;SDS011;43284;47.042;15.498;2022-09-09T03:51:00;3.33;;;0.88;;
57441;SDS011;43284;47.042;15.498;2022-09-09T03:53:29;7.47;;;1.27;;
57441;SDS011;43284;47.042;15.498;2022-09-09T03:55:57;6.40;;;1.17;;
57441;SDS011;43284;47.042;15.498;2022-09-09T03:58:26;7.78;;;1.33;;
57441;SDS011;43284;47.042;15.498;2022-09-09T04:00:58;2.78;;;1.08;;
57441;SDS011;43284;47.042;15.498;2022-09-09T04:03:27;1.13;;;1.00;;
57441;SDS011;43284;47.042;15.498;2022-09-09T04:05:57;5.93;;;1.42;;
57441;SDS011;43284;47.042;15.498;2022-09-09T04:08:28;2.80;;;1.33;;
57441;SDS011;43284;47.042;15.498;2022-09-09T04:10:57;3.72;;;1.27;;
57441;SDS011;43284;47.042;15.498;2022-09-09T04:13:26;5.28;;;1.30;;
57441;SDS011;43284;47.042;15.498;2022-09-09T04:15:56;5.18;;;1.60;;
57441;SDS011;43284;47.042;15.498;2022-09-09T04:18:25;2.80;;;1.30;;
57441;SDS011;43284;47.042;15.498;2022-09-09T04:20:54;5.93;;;1.27;;
57441;SDS011;43284;47.042;15.498;2022-09-09T04:23:27;3.95;;;1.70;;
57441;SDS011;43284;47.042;15.498;2022-09-09T04:25:56;5.20;;;1.48;;
57441;SDS011;43284;47.042;15.498;2022-09-09T04:28:25;7.30;;;1.65;;
57441;SDS011;43284;47.042;15.498;2022-09-09T04:30:55;3.72;;;1.80;;
57441;SDS011;43284;47.042;15.498;2022-09-09T04:33:24;1.85;;;1.25;;
57441;SDS011;43284;47.042;15.498;2022-09-09T04:35:57;1.88;;;1.35;;
57441;SDS011;43284;47.042;15.498;2022-09-09T04:38:24;3.17;;;1.30;;
57441;SDS011;43284;47.042;15.498;2022-09-09T04:40:52;6.07;;;1.27;;
57441;SDS011;43284;47.042;15.498;2022-09-09T04:43:20;10.43;;;1.63;;
57441;SDS011;43284;47.042;15.498;2022-09-09T04:45:49;5.78;;;1.30;;
57441;SDS011;43284;47.042;15.498;2022-09-09T04:48:17;3.22;;;1.35;;
57441;SDS011;43284;47.042;15.498;2022-09-09T04:50:55;5.38;;;1.27;;
57441;SDS011;43284;47.042;15.498;2022-09-09T04:56:07;2.00;;;1.25;;
57441;SDS011;43284;47.042;15.498;2022-09-09T04:58:40;8.10;;;1.27;;
57441;SDS011;43284;47.042;15.498;2022-09-09T05:01:13;6.50;;;1.25;;
57441;SDS011;43284;47.042;15.498;2022-09-09T05:03:47;6.45;;;1.30;;
57441;SDS011;43284;47.042;15.498;2022-09-09T05:06:15;3.88;;;1.20;;
57441;SDS011;43284;47.042;15.498;2022-09-09T05:08:44;4.50;;;1.33;;
57441;SDS011;43284;47.042;15.498;2022-09-09T05:11:16;2.03;;;1.10;;
57441;SDS011;43284;47.042;15.498;2022-09-09T05:13:45;3.20;;;1.83;;
57441;SDS011;43284;47.042;15.498;2022-09-09T05:16:13;2.42;;;1.75;;
57441;SDS011;43284;47.042;15.498;2022-09-09T05:18:41;3.25;;;1.90;;
57441;SDS011;43284;47.042;15.498;2022-09-09T05:21:09;7.47;;;2.13;;
57441;SDS011;43284;47.042;15.498;2022-09-09T05:23:38;3.58;;;1.83;;
57441;SDS011;43284;47.042;15.498;2022-09-09T05:26:07;4.57;;;1.98;;
57441;SDS011;43284;47.042;15.498;2022-09-09T05:28:41;2.53;;;1.40;;
57441;SDS011;43284;47.042;15.498;2022-09-09T05:31:09;15.52;;;3.72;;
57441;SDS011;43284;47.042;15.498;2022-09-09T05:33:39;10.85;;;2.40;;
57441;SDS011;43284;47.042;15.498;2022-09-09T05:36:11;5.03;;;2.10;;
57441;SDS011;43284;47.042;15.498;2022-09-09T05:38:40;7.07;;;1.70;;
57441;SDS011;43284;47.042;15.498;2022-09-09T05:41:07;4.43;;;1.60;;
57441;SDS011;43284;47.042;15.498;2022-09-09T05:43:37;3.45;;;1.52;;
57441;SDS011;43284;47.042;15.498;2022-09-09T05:46:09;3.95;;;1.40;;
57441;SDS011;43284;47.042;15.498;2022-09-09T05:48:39;3.40;;;1.35;;
57441;SDS011;43284;47.042;15.498;2022-09-09T05:51:11;5.63;;;1.40;;
57441;SDS011;43284;47.042;15.498;2022-09-09T05:53:41;5.88;;;1.30;;
57441;SDS011;43284;47.042;15.498;2022-09-09T05:56:10;1.70;;;1.40;;
57441;SDS011;43284;47.042;15.498;2022-09-09T05:58:42;3.80;;;1.50;;
57441;SDS011;43284;47.042;15.498;2022-09-09T06:01:14;5.57;;;1.20;;
57441;SDS011;43284;47.042;15.498;2022-09-09T06:03:44;3.78;;;1.42;;
57441;SDS011;43284;47.042;15.498;2022-09-09T06:06:14;2.13;;;1.40;;
57441;SDS011;43284;47.042;15.498;2022-09-09T06:08:47;6.03;;;2.05;;
57441;SDS011;43284;47.042;15.498;2022-09-09T06:11:21;7.18;;;1.42;;
57441;SDS011;43284;47.042;15.498;2022-09-09T06:13:50;2.15;;;1.38;;
57441;SDS011;43284;47.042;15.498;2022-09-09T06:16:20;6.45;;;1.70;;
57441;SDS011;43284;47.042;15.498;2022-09-09T06:18:49;6.50;;;1.70;;
57441;SDS011;43284;47.042;15.498;2022-09-09T06:21:18;6.85;;;1.30;;
57441;SDS011;43284;47.042;15.498;2022-09-09T06:23:53;3.90;;;1.70;;
57441;SDS011;43284;47.042;15.498;2022-09-09T06:26:22;6.40;;;1.63;;
57441;SDS011;43284;47.042;15.498;2022-09-09T06:28:52;3.88;;;1.42;;
57441;SDS011;43284;47.042;15.498;2022-09-09T06:31:21;2.92;;;1.60;;
57441;SDS011;43284;47.042;15.498;2022-09-09T06:33:50;4.32;;;1.80;;
57441;SDS011;43284;47.042;15.498;2022-09-09T06:36:21;3.58;;;1.48;;
57441;SDS011;43284;47.042;15.498;2022-09-09T06:38:50;2.95;;;1.38;;
57441;SDS011;43284;47.042;15.498;2022-09-09T06:41:19;3.42;;;1.40;;
57441;SDS011;43284;47.042;15.498;2022-09-09T06:43:50;2.40;;;1.50;;
57441;SDS011;43284;47.042;15.498;2022-09-09T06:46:22;3.13;;;1.40;;
57441;SDS011;43284;47.042;15.498;2022-09-09T06:48:56;2.95;;;1.40;;
57441;SDS011;43284;47.042;15.498;2022-09-09T06:51:28;4.97;;;1.50;;
57441;SDS011;43284;47.042;15.498;2022-09-09T06:54:00;3.67;;;1.23;;
57441;SDS011;43284;47.042;15.498;2022-09-09T06:56:30;4.73;;;1.63;;
57441;SDS011;43284;47.042;15.498;2022-09-09T06:59:00;4.53;;;2.08;;
57441;SDS011;43284;47.042;15.498;2022-09-09T07:01:32;3.90;;;1.63;;
57441;SDS011;43284;47.042;15.498;2022-09-09T07:04:01;3.65;;;2.20;;
57441;SDS011;43284;47.042;15.498;2022-09-09T07:06:35;8.80;;;2.35;;
57441;SDS011;43284;47.042;15.498;2022-09-09T07:09:06;4.38;;;2.50;;
57441;SDS011;43284;47.042;15.498;2022-09-09T07:11:38;6.10;;;2.67;;
57441;SDS011;43284;47.042;15.498;2022-09-09T07:14:07;6.82;;;2.70;;
57441;SDS011;43284;47.042;15.498;2022-09-09T07:16:37;7.40;;;3.45;;
57441;SDS011;43284;47.042;15.498;2022-09-09T07:19:05;8.15;;;3.42;;
57441;SDS011;43284;47.042;15.498;2022-09-09T07:21:32;6.47;;;3.58;;
57441;SDS011;43284;47.042;15.498;2022-09-09T07:24:00;11.43;;;3.60;;
57441;SDS011;43284;47.042;15.498;2022-09-09T07:26:29;13.90;;;3.70;;
57441;SDS011;43284;47.042;15.498;2022-09-09T07:28:56;10.95;;;3.55;;
57441;SDS011;43284;47.042;15.498;2022-09-09T07:31:29;5.45;;;3.58;;
57441;SDS011;43284;47.042;15.498;2022-09-09T07:33:59;8.00;;;3.90;;
57441;SDS011;43284;47.042;15.498;2022-09-09T07:36:28;7.55;;;3.45;;
57441;SDS011;43284;47.042;15.498;2022-09-09T07:39:03;7.85;;;3.67;;
57441;SDS011;43284;47.042;15.498;2022-09-09T07:44:03;8.25;;;3.85;;
57441;SDS011;43284;47.042;15.498;2022-09-09T07:46:32;10.80;;;3.63;;
57441;SDS011;43284;47.042;15.498;2022-09-09T07:49:00;8.80;;;3.90;;
57441;SDS011;43284;47.042;15.498;2022-09-09T07:51:28;8.13;;;3.78;;
57441;SDS011;43284;47.042;15.498;2022-09-09T07:53:58;10.07;;;4.20;;
57441;SDS011;43284;47.042;15.498;2022-09-09T07:56:28;7.82;;;4.00;;
57441;SDS011;43284;47.042;15.498;2022-09-09T07:58:56;9.70;;;4.07;;
57441;SDS011;43284;47.042;15.498;2022-09-09T08:01:29;6.95;;;4.25;;
57441;SDS011;43284;47.042;15.498;2022-09-09T08:06:31;7.88;;;4.18;;
57441;SDS011;43284;47.042;15.498;2022-09-09T08:09:03;8.57;;;4.15;;
57441;SDS011;43284;47.042;15.498;2022-09-09T08:11:33;12.77;;;4.40;;
57441;SDS011;43284;47.042;15.498;2022-09-09T08:14:02;6.45;;;3.53;;
57441;SDS011;43284;47.042;15.498;2022-09-09T08:16:31;11.40;;;3.83;;
57441;SDS011;43284;47.042;15.498;2022-09-09T08:18:59;8.30;;;4.03;;
57441;SDS011;43284;47.042;15.498;2022-09-09T08:21:27;9.88;;;4.60;;
57441;SDS011;43284;47.042;15.498;2022-09-09T08:23:56;6.25;;;3.53;;
57441;SDS011;43284;47.042;15.498;2022-09-09T08:26:25;8.07;;;3.85;;
57441;SDS011;43284;47.042;15.498;2022-09-09T08:28:58;11.10;;;5.28;;
57441;SDS011;43284;47.042;15.498;2022-09-09T08:31:30;16.10;;;4.82;;
57441;SDS011;43284;47.042;15.498;2022-09-09T08:34:00;8.93;;;3.38;;
57441;SDS011;43284;47.042;15.498;2022-09-09T08:36:33;11.20;;;4.53;;
57441;SDS011;43284;47.042;15.498;2022-09-09T08:39:02;6.45;;;3.53;;
57441;SDS011;43284;47.042;15.498;2022-09-09T08:52:38;6.13;;;3.47;;
57441;SDS011;43284;47.042;15.498;2022-09-09T08:58:47;7.63;;;3.58;;
57441;SDS011;43284;47.042;15.498;2022-09-09T09:09:38;8.10;;;3.80;;
57441;SDS011;43284;47.042;15.498;2022-09-09T09:12:23;8.57;;;3.88;;
57441;SDS011;43284;47.042;15.498;2022-09-09T09:14:53;9.02;;;3.90;;
57441;SDS011;43284;47.042;15.498;2022-09-09T09:17:25;9.05;;;3.58;;
57441;SDS011;43284;47.042;15.498;2022-09-09T09:19:57;9.55;;;3.88;;
57441;SDS011;43284;47.042;15.498;2022-09-09T09:22:41;10.75;;;3.30;;
57441;SDS011;43284;47.042;15.498;2022-09-09T09:25:23;6.78;;;3.22;;
57441;SDS011;43284;47.042;15.498;2022-09-09T09:28:03;8.18;;;2.97;;
57441;SDS011;43284;47.042;15.498;2022-09-09T09:30:52;6.60;;;3.05;;
57441;SDS011;43284;47.042;15.498;2022-09-09T09:33:51;8.68;;;3.00;;
57441;SDS011;43284;47.042;15.498;2022-09-09T09:36:37;7.03;;;2.97;;
57441;SDS011;43284;47.042;15.498;2022-09-09T09:39:29;5.88;;;2.17;;
57441;SDS011;43284;47.042;15.498;2022-09-09T09:44:42;9.50;;;2.80;;
57441;SDS011;43284;47.042;15.498;2022-09-09T09:47:13;6.70;;;2.60;;
57441;SDS011;43284;47.042;15.498;2022-09-09T09:49:53;5.28;;;2.30;;
57441;SDS011;43284;47.042;15.498;2022-09-09T09:52:29;4.85;;;2.42;;
57441;SDS011;43284;47.042;15.498;2022-09-09T09:54:58;6.90;;;2.70;;
57441;SDS011;43284;47.042;15.498;2022-09-09T09:57:33;6.65;;;2.13;;
57441;SDS011;43284;47.042;15.498;2022-09-09T10:00:03;3.95;;;2.33;;
57441;SDS011;43284;47.042;15.498;2022-09-09T10:02:40;2.60;;;1.90;;
57441;SDS011;43284;47.042;15.498;2022-09-09T10:07:42;4.68;;;1.88;;
57441;SDS011;43284;47.042;15.498;2022-09-09T10:10:15;2.67;;;2.25;;
57441;SDS011;43284;47.042;15.498;2022-09-09T10:13:05;3.75;;;2.17;;
57441;SDS011;43284;47.042;15.498;2022-09-09T10:25:08;3.80;;;2.00;;
57441;SDS011;43284;47.042;15.498;2022-09-09T10:27:32;2.90;;;1.60;;
57441;SDS011;43284;47.042;15.498;2022-09-09T10:30:20;7.55;;;2.28;;
57441;SDS011;43284;47.042;15.498;2022-09-09T10:38:40;6.05;;;2.05;;
57441;SDS011;43284;47.042;15.498;2022-09-09T10:50:03;3.38;;;1.50;;
57441;SDS011;43284;47.042;15.498;2022-09-09T10:55:43;2.15;;;1.45;;
57441;SDS011;43284;47.042;15.498;2022-09-09T10:58:29;1.77;;;1.15;;
57441;SDS011;43284;47.042;15.498;2022-09-09T11:01:28;2.63;;;1.50;;
57441;SDS011;43284;47.042;15.498;2022-09-09T11:04:04;6.13;;;1.67;;
57441;SDS011;43284;47.042;15.498;2022-09-09T11:06:46;4.45;;;1.67;;
57441;SDS011;43284;47.042;15.498;2022-09-09T11:09:28;3.72;;;1.85;;
57441;SDS011;43284;47.042;15.498;2022-09-09T11:12:03;2.42;;;1.40;;
57441;SDS011;43284;47.042;15.498;2022-09-09T11:14:38;3.70;;;1.60;;
57441;SDS011;43284;47.042;15.498;2022-09-09T11:17:12;4.63;;;1.75;;
57441;SDS011;43284;47.042;15.498;2022-09-09T11:19:44;1.88;;;1.60;;
57441;SDS011;43284;47.042;15.498;2022-09-09T11:22:21;3.22;;;1.23;;
57441;SDS011;43284;47.042;15.498;2022-09-09T11:28:17;6.00;;;1.48;;
57441;SDS011;43284;47.042;15.498;2022-09-09T11:39:01;2.05;;;1.30;;
57441;SDS011;43284;47.042;15.498;2022-09-09T11:41:50;2.17;;;1.25;;
57441;SDS011;43284;47.042;15.498;2022-09-09T11:44:23;2.88;;;1.73;;
57441;SDS011;43284;47.042;15.498;2022-09-09T11:46:57;3.25;;;1.70;;
57441;SDS011;43284;47.042;15.498;2022-09-09T11:49:28;3.47;;;1.33;;
57441;SDS011;43284;47.042;15.498;2022-09-09T11:55:08;6.03;;;1.27;;
57441;SDS011;43284;47.042;15.498;2022-09-09T12:00:40;4.22;;;1.38;;
57441;SDS011;43284;47.042;15.498;2022-09-09T12:09:05;3.25;;;1.10;;
57441;SDS011;43284;47.042;15.498;2022-09-09T12:11:44;3.22;;;1.30;;
57441;SDS011;43284;47.042;15.498;2022-09-09T12:14:23;2.83;;;1.20;;
57441;SDS011;43284;47.042;15.498;2022-09-09T12:17:16;2.17;;;1.10;;
57441;SDS011;43284;47.042;15.498;2022-09-09T12:19:46;3.47;;;1.50;;
57441;SDS011;43284;47.042;15.498;2022-09-09T12:22:24;5.53;;;1.40;;
57441;SDS011;43284;47.042;15.498;2022-09-09T12:27:36;2.45;;;1.40;;
57441;SDS011;43284;47.042;15.498;2022-09-09T12:30:15;1.58;;;1.23;;
57441;SDS011;43284;47.042;15.498;2022-09-09T12:32:44;2.80;;;1.27;;
57441;SDS011;43284;47.042;15.498;2022-09-09T12:35:12;2.15;;;1.13;;
57441;SDS011;43284;47.042;15.498;2022-09-09T12:37:47;2.25;;;1.25;;
57441;SDS011;43284;47.042;15.498;2022-09-09T12:40:21;3.05;;;1.20;;
57441;SDS011;43284;47.042;15.498;2022-09-09T12:43:01;1.75;;;0.90;;
57441;SDS011;43284;47.042;15.498;2022-09-09T12:45:43;1.98;;;1.33;;
57441;SDS011;43284;47.042;15.498;2022-09-09T12:48:11;2.03;;;1.13;;
57441;SDS011;43284;47.042;15.498;2022-09-09T12:50:50;1.50;;;1.20;;
57441;SDS011;43284;47.042;15.498;2022-09-09T12:53:23;2.45;;;1.25;;
57441;SDS011;43284;47.042;15.498;2022-09-09T12:58:29;2.85;;;1.40;;
57441;SDS011;43284;47.042;15.498;2022-09-09T13:01:02;2.58;;;1.30;;
57441;SDS011;43284;47.042;15.498;2022-09-09T13:03:32;2.40;;;1.30;;
57441;SDS011;43284;47.042;15.498;2022-09-09T13:06:16;3.15;;;1.30;;
57441;SDS011;43284;47.042;15.498;2022-09-09T13:08:49;1.27;;;1.17;;
57441;SDS011;43284;47.042;15.498;2022-09-09T13:11:29;3.67;;;1.30;;
57441;SDS011;43284;47.042;15.498;2022-09-09T13:14:26;3.05;;;1.30;;
57441;SDS011;43284;47.042;15.498;2022-09-09T13:16:59;2.50;;;1.20;;
57441;SDS011;43284;47.042;15.498;2022-09-09T13:19:34;4.00;;;1.30;;
57441;SDS011;43284;47.042;15.498;2022-09-09T13:22:19;4.88;;;1.17;;
57441;SDS011;43284;47.042;15.498;2022-09-09T13:27:38;1.88;;;1.15;;
57441;SDS011;43284;47.042;15.498;2022-09-09T13:30:23;1.60;;;1.20;;
57441;SDS011;43284;47.042;15.498;2022-09-09T13:33:17;1.42;;;1.08;;
57441;SDS011;43284;47.042;15.498;2022-09-09T13:35:51;4.00;;;1.40;;
57441;SDS011;43284;47.042;15.498;2022-09-09T13:38:22;3.47;;;1.10;;
57441;SDS011;43284;47.042;15.498;2022-09-09T13:41:00;1.10;;;0.95;;
57441;SDS011;43284;47.042;15.498;2022-09-09T13:43:31;1.25;;;1.15;;
57441;SDS011;43284;47.042;15.498;2022-09-09T13:51:37;1.98;;;1.10;;
57441;SDS011;43284;47.042;15.498;2022-09-09T13:54:14;2.47;;;1.38;;
57441;SDS011;43284;47.042;15.498;2022-09-09T13:56:42;2.15;;;1.00;;
57441;SDS011;43284;47.042;15.498;2022-09-09T13:59:15;5.35;;;1.20;;
57441;SDS011;43284;47.042;15.498;2022-09-09T14:01:50;1.73;;;1.30;;
57441;SDS011;43284;47.042;15.498;2022-09-09T14:04:18;3.03;;;1.23;;
57441;SDS011;43284;47.042;15.498;2022-09-09T14:06:49;3.08;;;1.00;;
57441;SDS011;43284;47.042;15.498;2022-09-09T14:09:17;1.98;;;1.10;;
57441;SDS011;43284;47.042;15.498;2022-09-09T14:11:46;1.55;;;1.08;;
57441;SDS011;43284;47.042;15.498;2022-09-09T14:14:17;5.18;;;1.58;;
57441;SDS011;43284;47.042;15.498;2022-09-09T14:16:45;7.80;;;2.03;;
57441;SDS011;43284;47.042;15.498;2022-09-09T14:19:13;2.38;;;1.00;;
57441;SDS011;43284;47.042;15.498;2022-09-09T14:21:40;6.85;;;1.70;;
57441;SDS011;43284;47.042;15.498;2022-09-09T14:24:07;3.85;;;1.85;;
57441;SDS011;43284;47.042;15.498;2022-09-09T14:26:35;4.00;;;1.60;;
57441;SDS011;43284;47.042;15.498;2022-09-09T14:29:03;5.78;;;1.83;;
57441;SDS011;43284;47.042;15.498;2022-09-09T14:31:30;3.53;;;1.65;;
57441;SDS011;43284;47.042;15.498;2022-09-09T14:33:57;3.28;;;1.85;;
57441;SDS011;43284;47.042;15.498;2022-09-09T14:36:24;2.22;;;1.48;;
57441;SDS011;43284;47.042;15.498;2022-09-09T14:38:52;1.58;;;1.27;;
57441;SDS011;43284;47.042;15.498;2022-09-09T14:41:19;2.22;;;1.25;;
57441;SDS011;43284;47.042;15.498;2022-09-09T14:43:48;1.67;;;1.50;;
57441;SDS011;43284;47.042;15.498;2022-09-09T14:46:17;3.13;;;1.42;;
57441;SDS011;43284;47.042;15.498;2022-09-09T14:48:45;4.35;;;1.58;;
57441;SDS011;43284;47.042;15.498;2022-09-09T14:51:19;2.78;;;1.92;;
57441;SDS011;43284;47.042;15.498;2022-09-09T14:53:53;4.53;;;1.98;;
57441;SDS011;43284;47.042;15.498;2022-09-09T14:56:24;2.53;;;1.85;;
57441;SDS011;43284;47.042;15.498;2022-09-09T14:58:54;3.60;;;1.60;;
57441;SDS011;43284;47.042;15.498;2022-09-09T15:01:23;2.28;;;1.63;;
57441;SDS011;43284;47.042;15.498;2022-09-09T15:03:56;6.20;;;1.58;;
57441;SDS011;43284;47.042;15.498;2022-09-09T15:06:26;3.53;;;1.63;;
57441;SDS011;43284;47.042;15.498;2022-09-09T15:08:56;2.33;;;1.35;;
57441;SDS011;43284;47.042;15.498;2022-09-09T15:11:28;1.98;;;1.45;;
57441;SDS011;43284;47.042;15.498;2022-09-09T15:13:57;2.97;;;1.60;;
57441;SDS011;43284;47.042;15.498;2022-09-09T15:16:26;4.63;;;1.88;;
57441;SDS011;43284;47.042;15.498;2022-09-09T15:18:55;5.43;;;2.78;;
57441;SDS011;43284;47.042;15.498;2022-09-09T15:21:25;4.72;;;1.85;;
57441;SDS011;43284;47.042;15.498;2022-09-09T15:23:55;8.30;;;2.10;;
57441;SDS011;43284;47.042;15.498;2022-09-09T15:26:23;2.92;;;2.17;;
57441;SDS011;43284;47.042;15.498;2022-09-09T15:28:51;5.45;;;1.95;;
57441;SDS011;43284;47.042;15.498;2022-09-09T15:31:20;4.90;;;2.03;;
57441;SDS011;43284;47.042;15.498;2022-09-09T15:33:53;2.63;;;1.70;;
57441;SDS011;43284;47.042;15.498;2022-09-09T15:36:41;5.32;;;2.40;;
57441;SDS011;43284;47.042;15.498;2022-09-09T15:39:10;3.38;;;2.13;;
57441;SDS011;43284;47.042;15.498;2022-09-09T15:41:41;7.75;;;2.40;;
57441;SDS011;43284;47.042;15.498;2022-09-09T15:44:09;2.80;;;1.80;;
57441;SDS011;43284;47.042;15.498;2022-09-09T15:46:52;4.22;;;2.22;;
57441;SDS011;43284;47.042;15.498;2022-09-09T15:49:20;4.93;;;2.10;;
57441;SDS011;43284;47.042;15.498;2022-09-09T15:51:56;4.47;;;1.85;;
57441;SDS011;43284;47.042;15.498;2022-09-09T15:54:33;2.63;;;2.00;;
57441;SDS011;43284;47.042;15.498;2022-09-09T15:57:06;2.90;;;1.80;;
57441;SDS011;43284;47.042;15.498;2022-09-09T15:59:38;2.72;;;1.85;;
57441;SDS011;43284;47.042;15.498;2022-09-09T16:02:11;2.65;;;1.65;;
57441;SDS011;43284;47.042;15.498;2022-09-09T16:04:40;5.82;;;2.10;;
57441;SDS011;43284;47.042;15.498;2022-09-09T16:07:10;5.78;;;2.00;;
57441;SDS011;43284;47.042;15.498;2022-09-09T16:09:38;2.13;;;1.70;;
57441;SDS011;43284;47.042;15.498;2022-09-09T16:12:05;2.33;;;1.40;;
57441;SDS011;43284;47.042;15.498;2022-09-09T16:14:33;3.05;;;1.90;;
57441;SDS011;43284;47.042;15.498;2022-09-09T16:17:02;3.92;;;1.90;;
57441;SDS011;43284;47.042;15.498;2022-09-09T16:19:31;5.20;;;1.90;;
57441;SDS011;43284;47.042;15.498;2022-09-09T16:21:59;3.53;;;1.80;;
57441;SDS011;43284;47.042;15.498;2022-09-09T16:24:26;2.17;;;1.80;;
57441;SDS011;43284;47.042;15.498;2022-09-09T16:26:54;2.38;;;1.45;;
57441;SDS011;43284;47.042;15.498;2022-09-09T16:29:22;5.45;;;1.83;;
57441;SDS011;43284;47.042;15.498;2022-09-09T16:31:53;5.63;;;1.80;;
57441;SDS011;43284;47.042;15.498;2022-09-09T16:34:21;1.92;;;1.45;;
57441;SDS011;43284;47.042;15.498;2022-09-09T16:36:48;3.80;;;1.35;;
57441;SDS011;43284;47.042;15.498;2022-09-09T16:39:16;2.72;;;1.40;;
57441;SDS011;43284;47.042;15.498;2022-09-09T16:41:45;4.55;;;1.30;;
57441;SDS011;43284;47.042;15.498;2022-09-09T16:44:14;5.05;;;1.33;;
57441;SDS011;43284;47.042;15.498;2022-09-09T16:46:44;3.33;;;1.50;;
57441;SDS011;43284;47.042;15.498;2022-09-09T16:49:14;3.00;;;1.55;;
57441;SDS011;43284;47.042;15.498;2022-09-09T16:51:43;2.72;;;1.38;;
57441;SDS011;43284;47.042;15.498;2022-09-09T16:54:15;2.70;;;1.38;;
57441;SDS011;43284;47.042;15.498;2022-09-09T16:56:44;4.07;;;1.65;;
57441;SDS011;43284;47.042;15.498;2022-09-09T16:59:14;4.78;;;1.45;;
57441;SDS011;43284;47.042;15.498;2022-09-09T17:01:47;1.80;;;1.45;;
57441;SDS011;43284;47.042;15.498;2022-09-09T17:04:17;1.40;;;1.17;;
57441;SDS011;43284;47.042;15.498;2022-09-09T17:06:48;5.60;;;1.77;;
57441;SDS011;43284;47.042;15.498;2022-09-09T17:09:17;3.20;;;1.50;;
57441;SDS011;43284;47.042;15.498;2022-09-09T17:11:45;4.68;;;1.50;;
57441;SDS011;43284;47.042;15.498;2022-09-09T17:14:17;5.25;;;1.52;;
57441;SDS011;43284;47.042;15.498;2022-09-09T17:16:46;6.00;;;1.10;;
57441;SDS011;43284;47.042;15.498;2022-09-09T17:19:14;2.28;;;1.48;;
57441;SDS011;43284;47.042;15.498;2022-09-09T17:21:43;3.35;;;1.30;;
57441;SDS011;43284;47.042;15.498;2022-09-09T17:24:13;4.43;;;1.63;;
57441;SDS011;43284;47.042;15.498;2022-09-09T17:26:41;2.47;;;1.48;;
57441;SDS011;43284;47.042;15.498;2022-09-09T17:29:10;4.40;;;1.70;;
57441;SDS011;43284;47.042;15.498;2022-09-09T17:31:38;2.03;;;1.55;;